createdAt,value
2019-05-10T00:00:46.886Z,0.00
2019-05-10T00:01:46.782Z,0.00
2019-05-10T00:02:46.739Z,0.00
2019-05-10T00:03:46.697Z,0.00
2019-05-10T00:04:46.658Z,0.00
2019-05-10T00:05:46.632Z,0.00
2019-05-10T00:06:46.590Z,0.00
2019-05-10T00:07:46.540Z,0.00
2019-05-10T00:08:46.599Z,0.00
2019-05-10T00:09:46.472Z,0.00
2019-05-10T00:10:46.425Z,0.00
2019-05-10T00:11:49.153Z,0.00
2019-05-10T00:12:46.347Z,0.00
2019-05-10T00:13:46.318Z,0.00
2019-05-10T00:14:46.264Z,0.00
2019-05-10T00:15:46.231Z,0.00
2019-05-10T00:16:46.185Z,0.00
2019-05-10T00:17:46.143Z,0.00
2019-05-10T00:18:46.110Z,0.00
2019-05-10T00:19:46.072Z,0.00
2019-05-10T00:20:46.033Z,0.00
2019-05-10T00:21:46.015Z,0.00
2019-05-10T00:22:45.952Z,0.00
2019-05-10T00:23:45.967Z,0.00
2019-05-10T00:25:00.763Z,0.00
2019-05-10T00:25:45.835Z,0.00
2019-05-10T00:26:45.796Z,0.00
2019-05-10T00:27:45.751Z,0.00
2019-05-10T00:28:45.717Z,0.00
2019-05-10T00:29:45.674Z,0.00
2019-05-10T00:30:45.639Z,0.00
2019-05-10T00:31:45.602Z,0.00
2019-05-10T00:32:45.556Z,0.00
2019-05-10T00:33:45.522Z,0.00
2019-05-10T00:34:45.478Z,0.00
2019-05-10T00:35:45.436Z,0.00
2019-05-10T00:36:45.395Z,0.00
2019-05-10T00:37:45.357Z,0.00
2019-05-10T00:38:45.389Z,0.00
2019-05-10T00:39:45.281Z,0.00
2019-05-10T00:40:45.242Z,0.00
2019-05-10T00:41:45.207Z,0.00
2019-05-10T00:42:45.158Z,0.00
2019-05-10T00:43:45.123Z,0.00
2019-05-10T00:44:45.080Z,0.00
2019-05-10T00:45:45.043Z,0.00
2019-05-10T00:46:44.999Z,0.00
2019-05-10T00:47:44.961Z,0.00
2019-05-10T00:48:44.921Z,0.00
2019-05-10T00:49:44.883Z,0.00
2019-05-10T00:50:44.846Z,0.00
2019-05-10T00:51:44.804Z,0.00
2019-05-10T00:52:44.764Z,0.00
2019-05-10T00:53:44.783Z,0.00
2019-05-10T00:54:44.687Z,0.00
2019-05-10T00:55:44.645Z,0.00
2019-05-10T00:56:44.604Z,0.00
2019-05-10T00:57:44.574Z,0.00
2019-05-10T00:58:44.532Z,0.00
2019-05-10T00:59:44.488Z,0.00
2019-05-10T01:00:44.447Z,0.00
2019-05-10T01:01:44.405Z,0.00
2019-05-10T01:02:44.373Z,0.00
2019-05-10T01:03:44.331Z,0.00
2019-05-10T01:04:44.290Z,0.00
2019-05-10T01:05:44.256Z,0.00
2019-05-10T01:06:44.218Z,0.00
2019-05-10T01:07:44.176Z,0.00
2019-05-10T01:08:44.128Z,0.00
2019-05-10T01:09:44.091Z,0.00
2019-05-10T01:10:44.054Z,0.00
2019-05-10T01:11:44.013Z,0.00
2019-05-10T01:12:43.980Z,0.00
2019-05-10T01:13:43.937Z,0.00
2019-05-10T01:14:43.890Z,0.00
2019-05-10T01:15:46.600Z,0.00
2019-05-10T01:16:43.836Z,0.00
2019-05-10T01:17:43.783Z,0.00
2019-05-10T01:18:43.736Z,0.00
2019-05-10T01:19:43.692Z,0.00
2019-05-10T01:20:43.658Z,0.00
2019-05-10T01:21:43.614Z,0.00
2019-05-10T01:22:43.581Z,0.00
2019-05-10T01:23:43.536Z,0.00
2019-05-10T01:24:43.499Z,0.00
2019-05-10T01:25:43.463Z,0.00
2019-05-10T01:26:43.415Z,0.00
2019-05-10T01:27:43.378Z,0.00
2019-05-10T01:28:43.337Z,0.00
2019-05-10T01:29:43.323Z,0.00
2019-05-10T01:30:43.262Z,0.00
2019-05-10T01:31:43.222Z,0.00
2019-05-10T01:32:43.178Z,0.00
2019-05-10T01:33:43.139Z,0.00
2019-05-10T01:34:43.101Z,0.00
2019-05-10T01:35:43.062Z,0.00
2019-05-10T01:36:43.022Z,0.00
2019-05-10T01:37:43.008Z,0.00
2019-05-10T01:38:42.942Z,0.00
2019-05-10T01:39:42.905Z,0.00
2019-05-10T01:40:42.863Z,0.00
2019-05-10T01:41:42.819Z,0.00
2019-05-10T01:42:42.785Z,0.00
2019-05-10T01:43:42.746Z,0.00
2019-05-10T01:44:51.360Z,0.00
2019-05-10T01:46:47.111Z,0.00
2019-05-10T01:47:47.046Z,0.00
2019-05-10T01:48:47.002Z,0.00
2019-05-10T01:49:46.965Z,0.00
2019-05-10T01:50:46.928Z,0.00
2019-05-10T01:51:46.898Z,0.00
2019-05-10T01:52:46.843Z,0.00
2019-05-10T01:53:46.806Z,0.00
2019-05-10T01:54:46.767Z,0.00
2019-05-10T01:55:52.289Z,0.00
2019-05-10T01:56:46.689Z,0.00
2019-05-10T01:57:46.648Z,0.00
2019-05-10T01:58:46.607Z,0.00
2019-05-10T01:59:46.566Z,0.00
2019-05-10T02:00:46.539Z,0.00
2019-05-10T02:01:46.490Z,0.00
2019-05-10T02:02:46.452Z,0.00
2019-05-10T02:03:46.412Z,0.00
2019-05-10T02:04:46.370Z,0.00
2019-05-10T02:05:46.330Z,0.00
2019-05-10T02:06:46.292Z,0.00
2019-05-10T02:07:46.254Z,0.00
2019-05-10T02:08:46.209Z,0.00
2019-05-10T02:09:46.173Z,0.00
2019-05-10T02:10:46.144Z,0.00
2019-05-10T02:11:46.099Z,0.00
2019-05-10T02:12:46.057Z,0.00
2019-05-10T02:13:46.016Z,0.00
2019-05-10T02:14:45.975Z,0.00
2019-05-10T02:15:45.933Z,0.00
2019-05-10T02:16:45.896Z,0.00
2019-05-10T02:17:45.860Z,0.00
2019-05-10T02:18:45.819Z,0.00
2019-05-10T02:19:45.781Z,0.00
2019-05-10T02:20:45.742Z,0.00
2019-05-10T02:21:45.705Z,0.00
2019-05-10T02:22:45.658Z,0.00
2019-05-10T02:23:45.618Z,0.00
2019-05-10T02:24:45.583Z,0.00
2019-05-10T02:25:45.549Z,0.00
2019-05-10T02:26:45.500Z,0.00
2019-05-10T02:27:45.459Z,0.00
2019-05-10T02:28:45.420Z,0.00
2019-05-10T02:29:45.389Z,0.00
2019-05-10T02:30:45.347Z,0.00
2019-05-10T02:31:45.312Z,0.00
2019-05-10T02:32:45.271Z,0.00
2019-05-10T02:33:45.226Z,0.00
2019-05-10T02:34:45.187Z,0.00
2019-05-10T02:35:45.146Z,0.00
2019-05-10T02:36:45.109Z,0.00
2019-05-10T02:37:45.067Z,0.00
2019-05-10T02:38:45.034Z,0.00
2019-05-10T02:39:44.990Z,0.00
2019-05-10T02:40:44.949Z,0.00
2019-05-10T02:41:44.925Z,0.00
2019-05-10T02:42:44.871Z,0.00
2019-05-10T02:43:44.836Z,0.00
2019-05-10T02:44:44.792Z,0.00
2019-05-10T02:45:44.754Z,0.00
2019-05-10T02:46:44.709Z,0.00
2019-05-10T02:47:44.670Z,0.00
2019-05-10T02:48:44.630Z,0.00
2019-05-10T02:49:44.634Z,0.00
2019-05-10T02:50:44.553Z,0.00
2019-05-10T02:51:44.522Z,0.00
2019-05-10T02:52:44.475Z,0.00
2019-05-10T02:53:44.434Z,0.00
2019-05-10T02:54:44.402Z,0.00
2019-05-10T02:55:44.354Z,0.00
2019-05-10T02:56:44.320Z,0.00
2019-05-10T02:57:44.281Z,0.00
2019-05-10T02:58:44.238Z,0.00
2019-05-10T02:59:44.199Z,0.00
2019-05-10T03:00:44.155Z,0.00
2019-05-10T03:01:44.119Z,0.00
2019-05-10T03:02:44.082Z,0.00
2019-05-10T03:03:44.046Z,0.00
2019-05-10T03:04:44.003Z,0.00
2019-05-10T03:05:48.177Z,0.00
2019-05-10T03:06:43.921Z,0.00
2019-05-10T03:07:43.880Z,0.00
2019-05-10T03:08:43.840Z,0.00
2019-05-10T03:09:43.803Z,0.00
2019-05-10T03:10:43.767Z,0.00
2019-05-10T03:11:43.727Z,0.00
2019-05-10T03:12:43.682Z,0.00
2019-05-10T03:13:43.646Z,0.00
2019-05-10T03:14:43.611Z,0.00
2019-05-10T03:15:43.567Z,0.00
2019-05-10T03:16:43.532Z,0.00
2019-05-10T03:17:43.491Z,0.00
2019-05-10T03:18:43.453Z,0.00
2019-05-10T03:19:43.406Z,0.00
2019-05-10T03:20:43.370Z,0.00
2019-05-10T03:21:43.334Z,0.00
2019-05-10T03:22:43.330Z,0.00
2019-05-10T03:37:31.951Z,4.00
2019-05-10T03:38:31.863Z,4.00
2019-05-10T03:39:31.818Z,8.00
2019-05-10T03:40:31.765Z,8.00
2019-05-10T03:41:31.730Z,8.00
2019-05-10T03:42:31.687Z,8.00
2019-05-10T03:43:31.642Z,8.00
2019-05-10T03:44:31.607Z,8.00
2019-05-10T03:45:31.557Z,12.00
2019-05-10T03:46:31.518Z,12.00
2019-05-10T03:47:31.478Z,20.00
2019-05-10T03:48:31.441Z,24.00
2019-05-10T03:49:31.399Z,20.00
2019-05-10T03:50:31.365Z,28.00
2019-05-10T03:51:31.316Z,32.00
2019-05-10T03:52:31.293Z,32.00
2019-05-10T03:53:31.234Z,36.00
2019-05-10T03:54:31.203Z,40.00
2019-05-10T03:55:31.151Z,48.00
2019-05-10T03:56:31.116Z,56.00
2019-05-10T03:57:31.083Z,56.00
2019-05-10T03:58:31.031Z,60.00
2019-05-10T03:59:30.992Z,56.00
2019-05-10T04:00:30.956Z,60.00
2019-05-10T04:01:30.913Z,64.00
2019-05-10T04:02:30.873Z,60.00
2019-05-10T04:03:30.830Z,60.00
2019-05-10T04:04:30.806Z,64.00
2019-05-10T04:05:30.749Z,52.00
2019-05-10T04:06:30.710Z,52.00
2019-05-10T04:07:30.673Z,52.00
2019-05-10T04:08:30.640Z,60.00
2019-05-10T04:09:30.615Z,60.00
2019-05-10T04:10:30.553Z,68.00
2019-05-10T04:11:30.514Z,76.00
2019-05-10T04:12:30.469Z,76.00
2019-05-10T04:13:30.435Z,96.00
2019-05-10T04:14:30.395Z,92.00
2019-05-10T04:15:30.374Z,96.00
2019-05-10T04:16:30.313Z,96.00
2019-05-10T04:17:30.275Z,96.00
2019-05-10T04:18:30.237Z,100.00
2019-05-10T04:19:30.196Z,104.00
2019-05-10T04:20:30.159Z,104.00
2019-05-10T04:21:30.124Z,120.00
2019-05-10T04:22:30.085Z,136.00
2019-05-10T04:23:30.037Z,148.00
2019-05-10T04:24:30.027Z,156.00
2019-05-10T04:25:29.956Z,140.00
2019-05-10T04:26:29.924Z,148.00
2019-05-10T04:27:32.817Z,176.00
2019-05-10T04:28:29.843Z,228.00
2019-05-10T04:29:29.837Z,220.00
2019-05-10T04:30:31.768Z,244.00
2019-05-10T04:31:29.731Z,244.00
2019-05-10T04:32:29.685Z,236.00
2019-05-10T04:33:29.646Z,280.00
2019-05-10T04:34:29.603Z,304.00
2019-05-10T04:35:29.561Z,312.00
2019-05-10T04:36:29.542Z,308.00
2019-05-10T04:37:29.492Z,336.00
2019-05-10T04:38:29.463Z,324.00
2019-05-10T04:39:29.404Z,328.00
2019-05-10T04:40:29.376Z,352.00
2019-05-10T04:41:29.331Z,380.00
2019-05-10T04:42:29.284Z,392.00
2019-05-10T04:43:29.251Z,444.00
2019-05-10T04:44:29.218Z,448.00
2019-05-10T04:45:29.207Z,464.00
2019-05-10T04:46:29.128Z,468.00
2019-05-10T04:47:29.088Z,468.00
2019-05-10T04:48:29.054Z,488.00
2019-05-10T04:49:29.008Z,532.00
2019-05-10T04:50:29.004Z,540.00
2019-05-10T04:51:28.931Z,588.00
2019-05-10T04:52:28.897Z,648.00
2019-05-10T04:53:28.866Z,644.00
2019-05-10T04:54:28.824Z,596.00
2019-05-10T04:55:28.770Z,624.00
2019-05-10T04:56:28.730Z,696.00
2019-05-10T04:57:28.690Z,724.00
2019-05-10T04:58:28.651Z,680.00
2019-05-10T04:59:28.614Z,648.00
2019-05-10T05:00:28.577Z,728.00
2019-05-10T05:01:28.532Z,768.00
2019-05-10T05:02:28.494Z,772.00
2019-05-10T05:03:28.455Z,804.00
2019-05-10T05:04:28.418Z,952.00
2019-05-10T05:05:28.379Z,1000.00
2019-05-10T05:06:28.339Z,980.00
2019-05-10T05:07:28.298Z,992.00
2019-05-10T05:08:28.255Z,1016.00
2019-05-10T05:09:28.223Z,1064.00
2019-05-10T05:10:28.185Z,1024.00
2019-05-10T05:11:28.140Z,1116.00
2019-05-10T05:12:28.110Z,1268.00
2019-05-10T05:13:28.065Z,1120.00
2019-05-10T05:14:28.025Z,940.00
2019-05-10T05:15:27.984Z,848.00
2019-05-10T05:16:27.946Z,820.00
2019-05-10T05:17:27.909Z,832.00
2019-05-10T05:18:27.869Z,864.00
2019-05-10T05:19:27.834Z,868.00
2019-05-10T05:20:27.783Z,924.00
2019-05-10T05:21:27.747Z,956.00
2019-05-10T05:22:27.706Z,1016.00
2019-05-10T05:23:27.675Z,1004.00
2019-05-10T05:24:27.637Z,1112.00
2019-05-10T05:25:27.592Z,1204.00
2019-05-10T05:26:27.553Z,1308.00
2019-05-10T05:27:27.509Z,1400.00
2019-05-10T05:28:27.468Z,1388.00
2019-05-10T05:29:27.432Z,1540.00
2019-05-10T05:30:27.394Z,1788.00
2019-05-10T05:31:27.364Z,1864.00
2019-05-10T05:32:27.318Z,2044.00
2019-05-10T05:33:27.277Z,1960.00
2019-05-10T05:34:27.237Z,2060.00
2019-05-10T05:35:27.201Z,2404.00
2019-05-10T05:36:27.161Z,2376.00
2019-05-10T05:37:27.123Z,2088.00
2019-05-10T05:38:27.082Z,2504.00
2019-05-10T05:39:27.065Z,2672.00
2019-05-10T05:40:26.999Z,2132.00
2019-05-10T05:41:26.959Z,2004.00
2019-05-10T05:42:28.051Z,2020.00
2019-05-10T05:43:26.883Z,2812.00
2019-05-10T05:44:27.848Z,1844.00
2019-05-10T05:45:28.388Z,1880.00
2019-05-10T05:46:26.769Z,1684.00
2019-05-10T05:47:26.727Z,1880.00
2019-05-10T05:48:39.469Z,2020.00
2019-05-10T05:49:26.652Z,2088.00
2019-05-10T05:50:26.620Z,2268.00
2019-05-10T05:51:26.574Z,2384.00
2019-05-10T05:52:26.530Z,2964.00
2019-05-10T05:53:26.493Z,3192.00
2019-05-10T05:54:26.459Z,4336.00
2019-05-10T05:55:30.526Z,3536.00
2019-05-10T05:56:26.379Z,2860.00
2019-05-10T05:57:27.474Z,2116.00
2019-05-10T05:58:27.211Z,1984.00
2019-05-10T05:59:26.424Z,1892.00
2019-05-10T06:00:26.217Z,1776.00
2019-05-10T06:01:29.436Z,1724.00
2019-05-10T06:02:26.140Z,1660.00
2019-05-10T06:03:28.106Z,1544.00
2019-05-10T06:04:26.073Z,1480.00
2019-05-10T06:05:34.125Z,1624.00
2019-05-10T06:06:25.987Z,1464.00
2019-05-10T06:07:31.171Z,1036.00
2019-05-10T06:08:25.913Z,980.00
2019-05-10T06:09:25.875Z,1020.00
2019-05-10T06:10:25.852Z,1112.00
2019-05-10T06:11:29.736Z,1236.00
2019-05-10T06:12:25.753Z,900.00
2019-05-10T06:13:30.407Z,900.00
2019-05-10T06:14:25.679Z,888.00
2019-05-10T06:15:29.548Z,816.00
2019-05-10T06:16:25.610Z,784.00
2019-05-10T06:17:29.354Z,968.00
2019-05-10T06:18:25.523Z,996.00
2019-05-10T06:19:29.392Z,1248.00
2019-05-10T06:20:25.448Z,1336.00
2019-05-10T06:21:26.786Z,1392.00
2019-05-10T06:22:25.369Z,1340.00
2019-05-10T06:23:29.030Z,1276.00
2019-05-10T06:24:25.292Z,1104.00
2019-05-10T06:25:39.273Z,1168.00
2019-05-10T06:26:28.523Z,1216.00
2019-05-10T06:27:25.187Z,1224.00
2019-05-10T06:28:28.914Z,1336.00
2019-05-10T06:29:25.101Z,1384.00
2019-05-10T06:30:25.060Z,1484.00
2019-05-10T06:31:25.020Z,1608.00
2019-05-10T06:32:24.983Z,1624.00
2019-05-10T06:33:24.942Z,1572.00
2019-05-10T06:34:24.903Z,1472.00
2019-05-10T06:35:24.869Z,1480.00
2019-05-10T06:36:24.874Z,1424.00
2019-05-10T06:37:24.789Z,1252.00
2019-05-10T06:38:24.748Z,1272.00
2019-05-10T06:39:24.740Z,1304.00
2019-05-10T06:40:34.222Z,1140.00
2019-05-10T06:41:24.641Z,1200.00
2019-05-10T06:42:28.752Z,1212.00
2019-05-10T06:43:24.583Z,1268.00
2019-05-10T06:44:24.887Z,1184.00
2019-05-10T06:45:24.478Z,1092.00
2019-05-10T06:46:29.226Z,1096.00
2019-05-10T06:47:24.404Z,992.00
2019-05-10T06:48:27.575Z,1072.00
2019-05-10T06:49:24.328Z,1232.00
2019-05-10T06:50:29.999Z,1328.00
2019-05-10T06:51:24.247Z,1356.00
2019-05-10T06:52:27.764Z,1456.00
2019-05-10T06:53:24.176Z,1488.00
2019-05-10T06:54:24.135Z,1544.00
2019-05-10T06:55:24.094Z,1628.00
2019-05-10T06:56:24.053Z,1864.00
2019-05-10T06:57:24.013Z,1788.00
2019-05-10T06:58:23.977Z,1772.00
2019-05-10T06:59:24.976Z,1512.00
2019-05-10T07:00:23.902Z,1532.00
2019-05-10T07:01:23.864Z,1672.00
2019-05-10T07:02:26.124Z,1560.00
2019-05-10T07:03:23.783Z,1896.00
2019-05-10T07:04:23.749Z,1816.00
2019-05-10T07:05:23.705Z,1508.00
2019-05-10T07:06:23.668Z,1608.00
2019-05-10T07:07:42.600Z,2152.00
2019-05-10T07:08:23.595Z,1904.00
2019-05-10T07:09:23.550Z,1612.00
2019-05-10T07:10:25.342Z,1708.00
2019-05-10T07:11:23.485Z,1716.00
2019-05-10T07:12:23.452Z,1708.00
2019-05-10T07:13:23.402Z,1660.00
2019-05-10T07:14:25.592Z,1760.00
2019-05-10T07:15:23.320Z,1832.00
2019-05-10T07:16:25.576Z,1884.00
2019-05-10T07:17:23.243Z,2104.00
2019-05-10T07:18:24.261Z,2144.00
2019-05-10T07:19:23.167Z,2388.00
2019-05-10T07:20:23.564Z,2444.00
2019-05-10T07:21:23.102Z,2364.00
2019-05-10T07:22:26.788Z,2536.00
2019-05-10T07:23:23.013Z,2420.00
2019-05-10T07:24:25.049Z,2824.00
2019-05-10T07:25:22.939Z,3104.00
2019-05-10T07:26:24.257Z,3312.00
2019-05-10T07:27:22.860Z,3576.00
2019-05-10T07:28:22.818Z,3068.00
2019-05-10T07:29:30.133Z,2804.00
2019-05-10T07:30:22.741Z,2772.00
2019-05-10T07:31:23.612Z,2912.00
2019-05-10T07:32:24.671Z,2476.00
2019-05-10T07:33:22.629Z,2748.00
2019-05-10T07:34:22.594Z,2972.00
2019-05-10T07:35:22.556Z,3192.00
2019-05-10T07:36:27.551Z,3288.00
2019-05-10T07:37:22.470Z,3756.00
2019-05-10T07:38:23.622Z,3500.00
2019-05-10T07:39:22.399Z,3112.00
2019-05-10T07:40:22.361Z,2804.00
2019-05-10T07:41:26.757Z,2548.00
2019-05-10T07:42:22.281Z,2688.00
2019-05-10T07:43:26.663Z,2512.00
2019-05-10T07:46:06.183Z,2128.00
2019-05-10T07:46:58.478Z,2012.00
2019-05-10T07:47:54.292Z,2320.00
2019-05-10T07:48:54.517Z,2324.00
2019-05-10T07:49:54.142Z,2584.00
2019-05-10T07:50:54.105Z,2840.00
2019-05-10T07:51:54.059Z,2964.00
2019-05-10T07:52:54.023Z,3144.00
2019-05-10T07:53:56.971Z,3724.00
2019-05-10T07:54:53.947Z,4532.00
2019-05-10T07:55:53.916Z,4552.00
2019-05-10T07:56:53.870Z,5092.00
2019-05-10T07:57:58.940Z,5624.00
2019-05-10T07:58:53.789Z,5316.00
2019-05-10T07:59:57.737Z,5196.00
2019-05-10T08:00:56.112Z,5668.00
2019-05-10T08:01:53.681Z,6696.00
2019-05-10T08:03:02.449Z,7260.00
2019-05-10T08:03:53.605Z,7088.00
2019-05-10T08:04:53.799Z,7260.00
2019-05-10T08:05:57.016Z,7500.00
2019-05-10T08:06:53.484Z,7116.00
2019-05-10T08:07:53.450Z,5788.00
2019-05-10T08:08:55.378Z,6828.00
2019-05-10T08:09:53.374Z,5808.00
2019-05-10T08:10:53.340Z,5488.00
2019-05-10T08:11:54.140Z,5204.00
2019-05-10T08:12:53.260Z,4760.00
2019-05-10T08:13:59.768Z,4720.00
2019-05-10T08:14:53.673Z,4172.00
2019-05-10T08:15:53.143Z,3816.00
2019-05-10T08:16:58.601Z,3648.00
2019-05-10T08:17:53.072Z,3268.00
2019-05-10T08:18:55.779Z,3472.00
2019-05-10T08:19:52.996Z,3052.00
2019-05-10T08:20:58.157Z,2784.00
2019-05-10T08:21:56.497Z,2556.00
2019-05-10T08:22:52.886Z,2708.00
2019-05-10T08:23:54.043Z,2752.00
2019-05-10T08:24:56.020Z,2848.00
2019-05-10T08:25:53.439Z,3472.00
2019-05-10T08:26:55.595Z,3936.00
2019-05-10T08:27:55.274Z,4396.00
2019-05-10T08:28:52.752Z,4508.00
2019-05-10T08:30:15.772Z,4364.00
2019-05-10T08:30:58.526Z,4432.00
2019-05-10T08:31:55.404Z,4280.00
2019-05-10T08:32:52.707Z,3892.00
2019-05-10T08:33:57.276Z,3852.00
2019-05-10T08:34:55.742Z,4332.00
2019-05-10T08:36:00.365Z,4544.00
2019-05-10T08:36:52.354Z,4396.00
2019-05-10T08:37:52.971Z,4260.00
2019-05-10T08:39:03.448Z,5072.00
2019-05-10T08:39:56.049Z,5020.00
2019-05-10T08:40:52.807Z,5988.00
2019-05-10T08:42:03.709Z,5816.00
2019-05-10T08:43:03.113Z,5752.00
2019-05-10T08:43:52.533Z,5700.00
2019-05-10T08:45:03.273Z,5484.00
2019-05-10T08:45:52.440Z,5516.00
2019-05-10T08:46:52.517Z,5496.00
2019-05-10T08:47:52.880Z,5572.00
2019-05-10T08:48:53.872Z,5324.00
2019-05-10T08:50:07.947Z,3716.00
2019-05-10T08:50:57.112Z,3856.00
2019-05-10T08:51:52.241Z,4024.00
2019-05-10T08:52:56.518Z,5844.00
2019-05-10T08:53:53.517Z,5432.00
2019-05-10T08:54:54.901Z,5836.00
2019-05-10T08:55:52.462Z,6268.00
2019-05-10T08:56:54.953Z,6832.00
2019-05-10T08:57:52.522Z,6364.00
2019-05-10T08:58:53.652Z,6420.00
2019-05-10T08:59:54.187Z,6244.00
2019-05-10T09:01:05.253Z,4640.00
2019-05-10T09:01:53.679Z,5304.00
2019-05-10T09:02:52.101Z,5732.00
2019-05-10T09:03:55.204Z,5724.00
2019-05-10T09:04:52.919Z,7552.00
2019-05-10T09:05:52.532Z,6880.00
2019-05-10T09:06:55.499Z,5324.00
2019-05-10T09:07:52.060Z,4808.00
2019-05-10T09:08:52.810Z,5320.00
2019-05-10T09:09:53.119Z,5040.00
2019-05-10T09:10:52.965Z,5112.00
2019-05-10T09:11:52.209Z,6556.00
2019-05-10T09:12:57.578Z,6104.00
2019-05-10T09:13:53.197Z,4856.00
2019-05-10T09:14:57.466Z,4640.00
2019-05-10T09:15:56.081Z,7152.00
2019-05-10T09:16:57.628Z,5228.00
2019-05-10T09:17:52.577Z,7172.00
2019-05-10T09:18:53.385Z,7184.00
2019-05-10T09:19:51.787Z,4868.00
2019-05-10T09:20:51.855Z,5276.00
2019-05-10T09:21:52.840Z,6296.00
2019-05-10T09:22:52.749Z,4876.00
2019-05-10T09:24:01.304Z,7268.00
2019-05-10T09:24:52.492Z,7140.00
2019-05-10T09:25:51.887Z,6388.00
2019-05-10T09:26:54.910Z,5248.00
2019-05-10T09:27:52.939Z,7004.00
2019-05-10T09:28:53.406Z,5648.00
2019-05-10T09:29:52.886Z,5508.00
2019-05-10T09:30:57.596Z,4872.00
2019-05-10T09:31:51.202Z,4720.00
2019-05-10T09:32:52.042Z,4720.00
2019-05-10T09:33:54.055Z,5976.00
2019-05-10T09:34:54.091Z,4812.00
2019-05-10T09:35:54.630Z,4964.00
2019-05-10T09:36:50.155Z,6416.00
2019-05-10T09:50:47.051Z,5628.00
2019-05-10T09:51:44.066Z,5616.00
2019-05-10T09:52:44.130Z,6476.00
2019-05-10T09:53:44.387Z,5484.00
2019-05-10T09:54:43.926Z,4992.00
2019-05-10T09:55:45.660Z,5016.00
2019-05-10T09:56:44.993Z,4916.00
2019-05-10T09:57:43.809Z,4676.00
2019-05-10T09:58:43.771Z,4812.00
2019-05-10T09:59:43.735Z,5012.00
2019-05-10T10:00:43.692Z,5200.00
2019-05-10T10:01:43.654Z,5216.00
2019-05-10T10:02:55.092Z,5652.00
2019-05-10T10:03:44.965Z,6084.00
2019-05-10T10:04:43.544Z,5896.00
2019-05-10T10:05:43.507Z,5784.00
2019-05-10T10:06:48.231Z,5928.00
2019-05-10T10:07:43.440Z,6068.00
2019-05-10T10:08:48.126Z,6068.00
2019-05-10T10:09:44.981Z,5992.00
2019-05-10T10:10:43.320Z,6344.00
2019-05-10T10:11:48.559Z,7632.00
2019-05-10T10:12:43.244Z,8200.00
2019-05-10T10:13:44.115Z,7968.00
2019-05-10T10:14:43.343Z,7152.00
2019-05-10T10:15:46.521Z,5508.00
2019-05-10T10:16:49.460Z,4996.00
2019-05-10T10:17:43.059Z,5112.00
2019-05-10T10:18:43.024Z,5256.00
2019-05-10T10:19:42.989Z,5460.00
2019-05-10T10:20:44.955Z,5492.00
2019-05-10T10:21:42.914Z,5488.00
2019-05-10T10:22:43.386Z,5448.00
2019-05-10T10:23:42.837Z,5644.00
2019-05-10T10:24:42.812Z,5612.00
2019-05-10T10:25:42.769Z,5604.00
2019-05-10T10:26:42.732Z,6736.00
2019-05-10T10:27:42.693Z,7196.00
2019-05-10T10:28:42.663Z,6484.00
2019-05-10T10:29:42.626Z,6940.00
2019-05-10T10:30:42.597Z,6588.00
2019-05-10T10:31:51.411Z,4288.00
2019-05-10T10:32:44.514Z,4268.00
2019-05-10T10:33:43.076Z,4648.00
2019-05-10T10:34:43.170Z,5124.00
2019-05-10T10:35:42.406Z,5136.00
2019-05-10T10:36:44.108Z,4940.00
2019-05-10T10:37:42.335Z,4696.00
2019-05-10T10:38:45.471Z,4420.00
2019-05-10T10:39:42.269Z,5728.00
2019-05-10T10:40:44.951Z,3916.00
2019-05-10T10:41:42.191Z,3808.00
2019-05-10T10:42:42.159Z,3832.00
2019-05-10T10:43:42.123Z,3812.00
2019-05-10T10:44:42.081Z,3776.00
2019-05-10T10:45:42.048Z,3864.00
2019-05-10T10:46:42.012Z,5260.00
2019-05-10T10:47:41.973Z,5864.00
2019-05-10T10:48:43.687Z,5608.00
2019-05-10T10:49:41.904Z,5696.00
2019-05-10T10:50:44.303Z,5836.00
2019-05-10T10:51:41.837Z,6124.00
2019-05-10T10:52:41.794Z,6152.00
2019-05-10T10:53:41.757Z,5960.00
2019-05-10T10:54:41.731Z,5152.00
2019-05-10T10:55:48.489Z,6844.00
2019-05-10T10:56:41.655Z,6832.00
2019-05-10T10:57:41.618Z,4536.00
2019-05-10T10:58:41.579Z,5832.00
2019-05-10T10:59:41.571Z,6528.00
2019-05-10T11:00:41.512Z,6888.00
2019-05-10T11:01:49.539Z,7020.00
2019-05-10T11:02:41.949Z,6940.00
2019-05-10T11:03:41.404Z,6916.00
2019-05-10T11:04:46.928Z,7052.00
2019-05-10T11:05:41.329Z,6936.00
2019-05-10T11:06:41.296Z,6928.00
2019-05-10T11:07:45.137Z,6340.00
2019-05-10T11:08:41.377Z,4760.00
2019-05-10T11:09:41.193Z,4536.00
2019-05-10T11:10:42.785Z,4396.00
2019-05-10T11:11:44.332Z,4200.00
2019-05-10T11:12:41.384Z,4088.00
2019-05-10T11:13:45.419Z,3984.00
2019-05-10T11:14:45.142Z,3944.00
2019-05-10T11:15:42.000Z,3720.00
2019-05-10T11:16:41.396Z,3536.00
2019-05-10T11:17:40.984Z,3408.00
2019-05-10T11:18:41.785Z,3356.00
2019-05-10T11:19:41.752Z,3340.00
2019-05-10T11:20:41.970Z,3352.00
2019-05-10T11:21:41.493Z,3360.00
2019-05-10T11:22:41.937Z,3412.00
2019-05-10T11:23:41.962Z,4028.00
2019-05-10T11:24:40.658Z,5600.00
2019-05-10T11:25:42.670Z,5652.00
2019-05-10T11:26:41.003Z,5736.00
2019-05-10T11:27:41.581Z,6076.00
2019-05-10T11:28:44.235Z,6556.00
2019-05-10T11:29:41.822Z,6704.00
2019-05-10T11:30:40.448Z,6584.00
2019-05-10T11:31:41.343Z,6300.00
2019-05-10T11:32:41.841Z,6084.00
2019-05-10T11:33:41.580Z,5780.00
2019-05-10T11:34:40.306Z,5400.00
2019-05-10T11:35:51.189Z,4744.00
2019-05-10T11:37:45.641Z,6136.00
2019-05-10T11:38:47.118Z,6648.00
2019-05-10T11:39:53.766Z,6836.00
2019-05-10T11:41:52.920Z,6912.00
2019-05-10T11:42:50.910Z,6968.00
2019-05-10T11:43:49.322Z,6980.00
2019-05-10T11:44:57.906Z,6864.00
2019-05-10T11:46:53.806Z,6208.00
2019-05-10T11:48:02.454Z,6080.00
2019-05-10T11:49:58.176Z,6140.00
2019-05-10T15:37:12.041Z,3100.00
2019-05-10T15:38:12.385Z,2848.00
2019-05-10T15:39:16.873Z,2736.00
2019-05-10T15:40:11.142Z,2768.00
2019-05-10T15:41:22.199Z,2896.00
2019-05-10T15:42:11.150Z,2964.00
2019-05-10T15:43:16.662Z,3040.00
2019-05-10T15:44:10.710Z,3116.00
2019-05-10T15:45:19.358Z,3364.00
2019-05-10T15:46:11.774Z,3764.00
2019-05-10T15:47:20.198Z,4064.00
2019-05-10T15:48:10.673Z,3980.00
2019-05-10T15:49:23.170Z,3784.00
2019-05-10T15:50:21.186Z,3736.00
2019-05-10T15:51:34.863Z,3752.00
2019-05-10T15:52:18.327Z,3324.00
2019-05-10T15:53:19.285Z,2952.00
2019-05-10T15:54:20.809Z,2848.00
2019-05-10T15:55:24.158Z,2856.00
2019-05-10T15:56:10.583Z,2864.00
2019-05-10T15:57:14.593Z,2868.00
2019-05-10T15:58:16.762Z,2924.00
2019-05-10T15:59:18.748Z,2896.00
2019-05-10T16:00:14.441Z,3108.00
2019-05-10T16:01:13.984Z,3472.00
2019-05-10T16:02:17.946Z,3160.00
2019-05-10T16:03:21.956Z,3392.00
2019-05-10T16:04:15.814Z,3296.00
2019-05-10T16:05:23.890Z,3180.00
2019-05-10T16:06:17.797Z,3232.00
2019-05-10T16:07:14.436Z,3172.00
2019-05-10T16:08:13.660Z,2996.00
2019-05-10T16:09:17.655Z,3076.00
2019-05-10T16:10:09.972Z,3052.00
2019-05-10T16:11:17.818Z,2944.00
2019-05-10T16:12:19.066Z,2728.00
2019-05-10T16:13:14.349Z,2520.00
2019-05-10T16:14:20.793Z,2340.00
2019-05-10T16:15:21.112Z,2276.00
2019-05-10T16:16:21.380Z,2256.00
2019-05-10T16:17:23.128Z,2320.00
2019-05-10T16:18:22.015Z,2468.00
2019-05-10T16:19:21.199Z,2940.00
2019-05-10T16:20:22.104Z,3340.00
2019-05-10T16:21:20.150Z,3528.00
2019-05-10T16:22:30.160Z,4144.00
2019-05-10T16:23:20.183Z,3892.00
2019-05-10T16:25:18.631Z,3352.00
2019-05-10T16:27:20.326Z,3304.00
2019-05-10T16:29:22.823Z,3112.00
2019-05-10T16:30:18.272Z,3120.00
2019-05-10T16:31:18.263Z,2980.00
2019-05-10T16:32:21.010Z,3100.00
2019-05-10T16:33:16.026Z,3420.00
2019-05-10T16:34:26.284Z,3276.00
2019-05-10T16:35:14.601Z,3000.00
2019-05-10T16:36:22.732Z,2816.00
2019-05-10T16:37:21.314Z,2736.00
2019-05-10T16:38:22.327Z,2656.00
2019-05-10T16:39:14.159Z,2584.00
2019-05-10T16:40:23.049Z,2436.00
2019-05-10T16:41:17.115Z,2284.00
2019-05-10T16:42:18.955Z,2184.00
2019-05-10T16:43:24.594Z,2112.00
2019-05-10T16:44:14.857Z,2092.00
2019-05-10T16:45:17.603Z,2060.00
2019-05-10T16:46:20.449Z,2076.00
2019-05-10T16:47:21.610Z,2040.00
2019-05-10T16:48:21.748Z,2084.00
2019-05-10T16:49:19.998Z,2096.00
2019-05-10T16:50:25.844Z,2148.00
2019-05-10T16:51:18.639Z,2264.00